createdAt,value
2018-07-30T00:02:08.290Z,28.70
2018-07-30T00:07:04.400Z,28.80
2018-07-30T00:12:00.499Z,28.50
2018-07-30T00:14:28.702Z,28.50
2018-07-30T00:16:56.859Z,28.30
2018-07-30T00:19:24.980Z,28.10
2018-07-30T00:21:53.136Z,27.30
2018-07-30T00:24:21.321Z,27.30
2018-07-30T00:26:49.452Z,27.50
2018-07-30T00:29:17.575Z,27.90
2018-07-30T00:31:45.688Z,28.20
2018-07-30T00:34:13.811Z,28.40
2018-07-30T00:36:42.015Z,28.60
2018-07-30T00:39:11.241Z,28.40
2018-07-30T00:41:40.831Z,28.00
2018-07-30T00:44:09.068Z,27.80
2018-07-30T00:46:37.807Z,27.90
2018-07-30T00:49:06.053Z,27.60
2018-07-30T00:51:34.159Z,27.30
2018-07-30T00:54:02.310Z,27.30
2018-07-30T00:56:30.482Z,27.30
2018-07-30T00:58:58.631Z,27.60
2018-07-30T01:01:26.811Z,27.90
2018-07-30T01:03:58.775Z,28.20
2018-07-30T01:06:26.962Z,28.30
2018-07-30T01:08:55.076Z,28.40
2018-07-30T01:11:23.247Z,28.40
2018-07-30T01:16:19.375Z,28.20
2018-07-30T01:18:47.552Z,28.20
2018-07-30T01:21:15.676Z,28.20
2018-07-30T01:23:43.849Z,28.30
2018-07-30T01:26:17.416Z,28.30
2018-07-30T01:28:45.650Z,28.30
2018-07-30T01:31:13.913Z,28.30
2018-07-30T01:33:42.046Z,28.30
2018-07-30T01:36:10.244Z,28.30
2018-07-30T01:38:38.480Z,28.20
2018-07-30T01:41:06.770Z,28.10
2018-07-30T01:43:34.876Z,28.20
2018-07-30T01:46:03.842Z,28.20
2018-07-30T01:48:31.968Z,28.20
2018-07-30T01:51:00.105Z,28.10
2018-07-30T01:53:28.863Z,28.10
2018-07-30T01:55:57.079Z,27.90
2018-07-30T01:58:25.274Z,27.80
2018-07-30T02:00:53.421Z,27.80
2018-07-30T02:03:21.538Z,27.50
2018-07-30T02:05:49.656Z,27.40
2018-07-30T02:08:17.842Z,27.30
2018-07-30T02:10:47.007Z,27.40
2018-07-30T02:13:15.167Z,27.40
2018-07-30T02:15:43.364Z,27.20
2018-07-30T02:18:11.543Z,27.10
2018-07-30T02:20:39.682Z,27.30
2018-07-30T02:23:07.852Z,27.20
2018-07-30T02:25:36.016Z,27.40
2018-07-30T02:28:04.163Z,27.50
2018-07-30T02:30:32.332Z,27.50
2018-07-30T02:33:00.723Z,27.50
2018-07-30T02:35:28.827Z,27.50
2018-07-30T02:37:56.999Z,27.30
2018-07-30T02:40:25.172Z,27.20
2018-07-30T02:42:53.311Z,27.20
2018-07-30T02:45:21.471Z,27.20
2018-07-30T02:47:49.689Z,27.10
2018-07-30T02:50:17.835Z,27.10
2018-07-30T02:52:46.032Z,27.10
2018-07-30T02:55:14.152Z,27.10
2018-07-30T02:57:42.337Z,27.10
2018-07-30T03:00:10.510Z,27.00
2018-07-30T03:02:38.878Z,27.00
2018-07-30T03:05:07.095Z,27.00
2018-07-30T03:07:35.213Z,27.00
2018-07-30T03:10:03.353Z,27.00
2018-07-30T03:12:31.517Z,27.00
2018-07-30T03:14:59.676Z,26.90
2018-07-30T03:17:27.915Z,26.90
2018-07-30T03:19:56.051Z,26.90
2018-07-30T03:22:24.315Z,26.90
2018-07-30T03:24:52.955Z,26.80
2018-07-30T03:27:21.096Z,26.80
2018-07-30T03:29:49.244Z,26.70
2018-07-30T03:32:17.354Z,26.70
2018-07-30T03:34:45.631Z,26.60
2018-07-30T03:37:13.738Z,26.50
2018-07-30T03:39:41.854Z,26.30
2018-07-30T03:42:10.052Z,26.50
2018-07-30T03:44:38.176Z,26.60
2018-07-30T03:47:06.440Z,26.70
2018-07-30T03:49:34.609Z,26.70
2018-07-30T03:52:03.080Z,26.50
2018-07-30T03:54:31.210Z,26.50
2018-07-30T03:57:05.902Z,26.60
2018-07-30T03:59:34.063Z,26.70
2018-07-30T04:02:02.283Z,26.70
2018-07-30T04:04:30.434Z,26.70
2018-07-30T04:06:58.959Z,26.70
2018-07-30T04:09:27.179Z,26.70
2018-07-30T04:11:55.348Z,26.70
2018-07-30T04:14:24.057Z,26.70
2018-07-30T04:16:52.416Z,26.70
2018-07-30T04:19:21.319Z,26.60
2018-07-30T04:21:49.481Z,26.60
2018-07-30T04:24:17.650Z,26.60
2018-07-30T04:26:46.727Z,26.60
2018-07-30T04:29:15.735Z,26.60
2018-07-30T04:31:43.980Z,26.60
2018-07-30T04:34:12.216Z,26.60
2018-07-30T04:36:40.366Z,26.60
2018-07-30T04:39:13.475Z,26.50
2018-07-30T04:41:41.829Z,26.50
2018-07-30T04:44:10.020Z,26.50
2018-07-30T04:46:38.492Z,26.50
2018-07-30T04:49:06.752Z,26.50
2018-07-30T04:51:35.872Z,26.50
2018-07-30T04:54:04.392Z,26.50
2018-07-30T04:56:32.559Z,26.50
2018-07-30T04:59:00.750Z,26.50
2018-07-30T05:01:28.974Z,26.60
2018-07-30T05:03:57.193Z,26.60
2018-07-30T05:06:25.277Z,26.60
2018-07-30T05:08:53.479Z,26.70
2018-07-30T05:11:21.716Z,26.90
2018-07-30T05:13:49.901Z,26.80
2018-07-30T05:16:18.016Z,26.80
2018-07-30T05:18:46.189Z,26.90
2018-07-30T05:21:14.448Z,26.90
2018-07-30T05:23:42.603Z,27.00
2018-07-30T05:26:10.721Z,27.00
2018-07-30T05:28:38.917Z,27.00
2018-07-30T05:38:40.755Z,27.10
2018-07-30T05:41:09.003Z,27.10
2018-07-30T05:43:37.140Z,26.10
2018-07-30T05:46:05.304Z,26.50
2018-07-30T05:48:33.499Z,26.80
2018-07-30T05:51:01.648Z,27.10
2018-07-30T05:53:29.808Z,27.20
2018-07-30T05:55:57.978Z,27.40
2018-07-30T05:58:26.100Z,27.50
2018-07-30T06:00:54.260Z,27.60
2018-07-30T06:03:22.428Z,27.40
2018-07-30T06:05:50.762Z,27.60
2018-07-30T06:08:18.892Z,27.70
2018-07-30T06:10:47.770Z,27.80
2018-07-30T06:13:15.911Z,28.00
2018-07-30T06:15:44.087Z,28.20
2018-07-30T06:18:12.240Z,28.00
2018-07-30T06:20:40.393Z,28.10
2018-07-30T06:23:08.579Z,27.90
2018-07-30T06:25:36.802Z,27.80
2018-07-30T06:28:05.095Z,27.90
2018-07-30T06:30:33.295Z,28.10
2018-07-30T06:33:01.432Z,28.50
2018-07-30T06:35:29.598Z,28.60
2018-07-30T06:37:57.769Z,28.90
2018-07-30T06:40:26.004Z,29.20
2018-07-30T06:45:22.901Z,30.90
2018-07-30T06:47:51.087Z,32.00
2018-07-30T06:50:19.198Z,32.90
2018-07-30T06:52:47.804Z,34.20
2018-07-30T06:55:16.002Z,35.10
2018-07-30T06:57:44.130Z,36.00
2018-07-30T07:00:12.305Z,37.30
2018-07-30T07:02:43.204Z,38.80
2018-07-30T07:05:19.350Z,40.20
2018-07-30T07:07:49.879Z,41.20
2018-07-30T07:10:18.026Z,41.20
2018-07-30T07:12:46.139Z,40.30
2018-07-30T07:15:14.753Z,39.50
2018-07-30T07:17:43.975Z,39.60
2018-07-30T07:20:12.119Z,40.00
2018-07-30T07:22:40.251Z,40.90
2018-07-30T07:25:08.603Z,42.00
2018-07-30T07:27:37.088Z,43.00
2018-07-30T07:30:07.043Z,43.70
2018-07-30T07:32:35.326Z,44.30
2018-07-30T07:35:03.493Z,44.60
2018-07-30T07:37:31.576Z,45.20
2018-07-30T07:39:59.711Z,46.40
2018-07-30T07:42:27.863Z,47.40
2018-07-30T07:44:56.012Z,47.70
2018-07-30T07:47:24.213Z,47.10
2018-07-30T07:49:52.666Z,46.20
2018-07-30T07:52:22.207Z,45.20
2018-07-30T07:54:50.332Z,44.10
2018-07-30T07:57:18.455Z,43.80
2018-07-30T07:59:46.567Z,43.70
2018-07-30T08:02:14.701Z,43.40
2018-07-30T08:04:42.831Z,43.50
2018-07-30T08:07:10.947Z,43.50
2018-07-30T08:09:39.098Z,43.50
2018-07-30T08:12:07.227Z,43.10
2018-07-30T08:14:35.401Z,43.10
2018-07-30T08:17:03.602Z,42.80
2018-07-30T08:19:31.724Z,42.90
2018-07-30T08:21:59.827Z,43.00
2018-07-30T08:24:28.565Z,42.60
2018-07-30T08:26:56.673Z,42.10
2018-07-30T08:29:24.851Z,41.70
2018-07-30T08:31:52.960Z,41.20
2018-07-30T08:36:49.001Z,41.30
2018-07-30T08:39:17.164Z,41.70
2018-07-30T08:41:45.313Z,41.40
2018-07-30T08:44:13.479Z,41.30
2018-07-30T08:46:41.619Z,40.80
2018-07-30T08:49:09.743Z,40.60
2018-07-30T08:51:37.886Z,41.20
2018-07-30T08:54:06.015Z,42.00
2018-07-30T08:56:34.141Z,42.70
2018-07-30T08:59:02.272Z,43.70
2018-07-30T09:01:30.468Z,44.70
2018-07-30T09:03:58.619Z,44.90
2018-07-30T09:06:26.815Z,44.20
2018-07-30T09:08:54.943Z,42.90
2018-07-30T09:11:23.099Z,42.50
2018-07-30T09:13:51.611Z,42.40
2018-07-30T09:16:19.839Z,43.20
2018-07-30T09:18:48.116Z,42.70
2018-07-30T09:21:16.271Z,43.20
2018-07-30T09:23:44.408Z,42.50
2018-07-30T09:36:04.164Z,46.40
2018-07-30T09:48:23.959Z,49.00
2018-07-30T09:50:52.101Z,49.20
2018-07-30T09:53:20.276Z,47.20
2018-07-30T09:55:48.428Z,45.60
2018-07-30T10:03:17.884Z,44.90
2018-07-30T10:05:46.099Z,45.80
2018-07-30T10:13:10.191Z,45.40
2018-07-30T10:15:38.362Z,46.20
2018-07-30T10:18:06.913Z,47.20
2018-07-30T10:20:34.937Z,47.30
2018-07-30T10:25:30.987Z,45.10
2018-07-30T10:27:59.159Z,45.40
2018-07-30T10:30:27.317Z,46.30
2018-07-30T10:32:55.472Z,47.50
2018-07-30T10:35:23.940Z,48.20
2018-07-30T10:37:52.222Z,48.90
2018-07-30T10:40:20.382Z,47.40
2018-07-30T10:42:48.567Z,46.70
2018-07-30T10:45:16.767Z,46.60
2018-07-30T10:47:44.912Z,46.10
2018-07-30T11:05:00.691Z,48.40
2018-07-30T11:07:28.843Z,47.90
2018-07-30T11:14:52.847Z,44.20
2018-07-30T11:17:20.987Z,43.80
2018-07-30T11:24:44.979Z,46.00
2018-07-30T11:29:41.056Z,42.80
2018-07-30T11:34:37.159Z,42.80
2018-07-30T11:37:05.336Z,42.60
2018-07-30T11:44:29.373Z,40.50
2018-07-30T11:49:25.415Z,42.70
2018-07-30T12:04:13.144Z,44.80
2018-07-30T12:06:41.277Z,43.70
2018-07-30T12:09:09.432Z,44.10
2018-07-30T12:11:37.623Z,43.80
2018-07-30T12:14:05.778Z,44.80
2018-07-30T12:16:34.060Z,46.30
2018-07-30T12:23:58.108Z,44.10
2018-07-30T12:26:26.271Z,43.10
2018-07-30T12:28:54.434Z,43.30
2018-07-30T12:36:18.656Z,44.30
2018-07-30T12:43:42.627Z,45.20
2018-07-30T12:46:10.783Z,43.20
2018-07-30T12:51:06.955Z,40.60
2018-07-30T12:53:35.091Z,40.70
2018-07-30T12:56:03.243Z,42.30
2018-07-30T12:58:31.383Z,43.50
2018-07-30T13:03:27.551Z,42.40
2018-07-30T13:05:55.687Z,42.50
2018-07-30T13:13:19.727Z,42.00
2018-07-30T13:15:48.440Z,42.00
2018-07-30T13:25:40.303Z,42.50
2018-07-30T13:28:08.524Z,42.30
2018-07-30T13:30:36.822Z,43.10
2018-07-30T13:33:05.200Z,43.20
2018-07-30T13:35:33.342Z,42.70
2018-07-30T13:45:25.614Z,43.50
2018-07-30T13:47:53.731Z,44.00
2018-07-30T13:50:21.919Z,44.30
2018-07-30T14:00:13.951Z,42.40
2018-07-30T14:02:42.167Z,41.20
2018-07-30T14:10:07.631Z,40.20
2018-07-30T14:12:35.791Z,39.90
2018-07-30T14:17:32.555Z,40.40
2018-07-30T14:24:56.659Z,39.80
2018-07-30T14:27:24.799Z,39.80
2018-07-30T14:29:52.961Z,39.50
2018-07-30T14:32:21.110Z,39.70
2018-07-30T14:34:49.410Z,38.80
2018-07-30T14:37:17.532Z,39.00
2018-07-30T14:39:45.757Z,39.30
2018-07-30T14:52:05.892Z,40.50
2018-07-30T14:54:34.098Z,40.50
2018-07-30T14:59:30.174Z,39.50
2018-07-30T15:01:58.601Z,38.90
2018-07-30T15:04:27.039Z,38.20
2018-07-30T15:06:55.201Z,38.10
2018-07-30T15:09:23.451Z,38.70
2018-07-30T15:11:51.637Z,38.80
2018-07-30T15:14:20.109Z,39.20
2018-07-30T15:16:48.727Z,39.20
2018-07-30T15:19:17.086Z,38.10
2018-07-30T15:21:45.187Z,37.90
2018-07-30T15:26:41.235Z,39.00
2018-07-30T15:29:09.415Z,39.10
2018-07-30T15:36:33.508Z,39.40
2018-07-30T15:41:29.652Z,39.40
2018-07-30T15:46:25.801Z,39.60
2018-07-30T15:48:53.977Z,39.30
2018-07-30T15:51:22.153Z,39.40
2018-07-30T15:53:51.074Z,39.60
2018-07-30T16:01:15.086Z,39.20
2018-07-30T16:03:43.255Z,39.40
2018-07-30T16:25:55.143Z,40.20
2018-07-30T16:28:23.321Z,39.80
2018-07-30T16:35:47.380Z,39.10
2018-07-30T16:48:07.434Z,39.10
2018-07-30T16:50:35.571Z,38.90
2018-07-30T16:53:03.808Z,38.30
2018-07-30T16:57:59.937Z,38.20
2018-07-30T17:02:56.035Z,37.40
2018-07-30T17:15:16.656Z,38.40
2018-07-30T17:22:42.361Z,39.10
2018-07-30T17:25:10.543Z,38.70
2018-07-30T17:32:35.094Z,38.70
2018-07-30T17:44:55.800Z,37.00
2018-07-30T17:52:19.842Z,37.80
2018-07-30T18:04:41.227Z,37.80
2018-07-30T18:09:37.381Z,37.60
2018-07-30T18:17:01.427Z,37.60
2018-07-30T18:21:57.487Z,37.40
2018-07-30T18:24:26.259Z,37.50
2018-07-30T18:36:47.084Z,37.60
2018-07-30T18:46:39.832Z,37.60
2018-07-30T18:49:08.044Z,37.50
2018-07-30T18:56:32.044Z,37.40
2018-07-30T18:59:01.129Z,37.40
2018-07-30T19:08:53.033Z,37.00
2018-07-30T19:13:49.544Z,36.60
2018-07-30T19:18:45.671Z,36.50
2018-07-30T19:23:41.734Z,36.30
2018-07-30T19:26:09.885Z,36.30
2018-07-30T19:28:38.266Z,36.20
2018-07-30T19:31:06.583Z,36.10
2018-07-30T19:33:34.820Z,36.00
2018-07-30T19:36:02.959Z,35.90
2018-07-30T19:38:31.092Z,35.70
2018-07-30T19:40:59.237Z,35.70
2018-07-30T19:43:27.392Z,35.50
2018-07-30T19:45:55.531Z,35.10
2018-07-30T19:48:23.666Z,34.90
2018-07-30T19:53:19.790Z,34.70
2018-07-30T19:58:16.979Z,34.70
2018-07-30T20:00:44.854Z,34.60
2018-07-30T20:03:13.031Z,34.60
2018-07-30T20:08:09.120Z,34.50
2018-07-30T20:10:37.291Z,34.60
2018-07-30T20:13:05.682Z,34.70
2018-07-30T20:15:33.849Z,34.80
2018-07-30T20:18:02.049Z,34.80
2018-07-30T20:20:30.200Z,34.70
2018-07-30T20:22:58.780Z,34.50
2018-07-30T20:25:26.923Z,34.60
2018-07-30T20:27:55.059Z,34.70
2018-07-30T20:30:23.243Z,34.70
2018-07-30T20:32:51.376Z,34.70
2018-07-30T20:35:19.543Z,34.80
2018-07-30T20:37:47.994Z,34.80
2018-07-30T20:40:16.147Z,34.80
2018-07-30T20:42:44.372Z,34.80
2018-07-30T20:45:12.542Z,34.80
2018-07-30T20:47:40.707Z,34.80
2018-07-30T20:50:08.881Z,34.60
2018-07-30T20:52:37.026Z,34.50
2018-07-30T20:55:05.187Z,34.30
2018-07-30T20:57:33.324Z,34.30
2018-07-30T21:00:01.502Z,34.40
2018-07-30T21:02:29.634Z,34.30
2018-07-30T21:04:57.772Z,34.30
2018-07-30T21:07:25.929Z,34.30
2018-07-30T21:09:54.156Z,34.40
2018-07-30T21:12:22.303Z,34.30
2018-07-30T21:14:50.424Z,34.10
2018-07-30T21:22:14.407Z,33.90
2018-07-30T21:29:38.415Z,33.60
2018-07-30T21:32:06.639Z,33.50
2018-07-30T21:34:34.787Z,33.40
2018-07-30T21:37:02.944Z,32.80
2018-07-30T21:41:59.114Z,32.80
2018-07-30T21:46:55.340Z,32.80
2018-07-30T21:49:24.067Z,32.60
2018-07-30T21:51:52.195Z,32.50
2018-07-30T21:59:17.012Z,32.20
2018-07-30T22:01:45.123Z,32.20
2018-07-30T22:09:09.927Z,32.00
2018-07-30T22:11:38.057Z,32.00
2018-07-30T22:14:06.568Z,32.00
2018-07-30T22:16:34.686Z,31.90
2018-07-30T22:19:02.807Z,32.00
2018-07-30T22:21:30.931Z,31.90
2018-07-30T22:23:59.038Z,31.90
2018-07-30T22:26:27.150Z,31.90
2018-07-30T22:31:23.239Z,31.70
2018-07-30T22:36:19.283Z,31.80
2018-07-30T22:38:47.450Z,31.80
2018-07-30T22:43:43.463Z,31.80
2018-07-30T22:48:39.519Z,31.90
2018-07-30T22:51:07.623Z,32.00
2018-07-30T22:53:35.762Z,31.90
2018-07-30T22:56:03.907Z,31.90
2018-07-30T22:58:32.023Z,31.80
2018-07-30T23:01:00.255Z,31.80
2018-07-30T23:10:52.118Z,31.60
2018-07-30T23:13:20.240Z,31.70
2018-07-30T23:15:48.361Z,31.70
2018-07-30T23:18:16.463Z,31.60
2018-07-30T23:20:44.686Z,31.60
2018-07-30T23:23:12.890Z,31.50
2018-07-30T23:25:41.011Z,31.50
2018-07-30T23:30:37.095Z,31.40
2018-07-30T23:33:05.217Z,31.50
2018-07-30T23:35:33.337Z,31.30
2018-07-30T23:38:01.451Z,31.20
2018-07-30T23:40:29.610Z,31.30
2018-07-30T23:50:21.478Z,31.30
2018-07-30T23:52:49.925Z,31.20
2018-07-30T23:55:18.102Z,31.20
2018-07-30T23:57:46.232Z,31.20
